sensor_id;sensor_type;location;lat;lon;timestamp;P1;durP1;ratioP1;P2;durP2;ratioP2
66478;SDS011;53294;47.912;13.526;2023-04-24T00:02:21;1.75;;;1.20;;
66478;SDS011;53294;47.912;13.526;2023-04-24T00:04:48;2.17;;;1.35;;
66478;SDS011;53294;47.912;13.526;2023-04-24T00:07:15;4.13;;;1.42;;
66478;SDS011;53294;47.912;13.526;2023-04-24T00:09:46;1.50;;;1.20;;
66478;SDS011;53294;47.912;13.526;2023-04-24T00:12:13;3.58;;;1.40;;
66478;SDS011;53294;47.912;13.526;2023-04-24T00:14:39;3.17;;;1.50;;
66478;SDS011;53294;47.912;13.526;2023-04-24T00:17:06;2.67;;;1.40;;
66478;SDS011;53294;47.912;13.526;2023-04-24T00:19:33;2.45;;;1.33;;
66478;SDS011;53294;47.912;13.526;2023-04-24T00:22:00;2.33;;;1.80;;
66478;SDS011;53294;47.912;13.526;2023-04-24T00:24:26;3.13;;;2.35;;
66478;SDS011;53294;47.912;13.526;2023-04-24T00:26:53;2.97;;;2.30;;
66478;SDS011;53294;47.912;13.526;2023-04-24T00:29:20;2.67;;;1.60;;
66478;SDS011;53294;47.912;13.526;2023-04-24T00:31:46;1.85;;;1.40;;
66478;SDS011;53294;47.912;13.526;2023-04-24T00:34:13;3.00;;;1.30;;
66478;SDS011;53294;47.912;13.526;2023-04-24T00:36:40;2.15;;;1.48;;
66478;SDS011;53294;47.912;13.526;2023-04-24T00:39:06;2.15;;;1.40;;
66478;SDS011;53294;47.912;13.526;2023-04-24T00:41:36;3.05;;;1.50;;
66478;SDS011;53294;47.912;13.526;2023-04-24T00:44:03;1.35;;;1.20;;
66478;SDS011;53294;47.912;13.526;2023-04-24T00:46:30;1.88;;;1.00;;
66478;SDS011;53294;47.912;13.526;2023-04-24T00:48:58;1.23;;;1.00;;
66478;SDS011;53294;47.912;13.526;2023-04-24T00:51:25;2.28;;;1.30;;
66478;SDS011;53294;47.912;13.526;2023-04-24T00:53:53;1.08;;;0.98;;
66478;SDS011;53294;47.912;13.526;2023-04-24T00:56:20;1.52;;;1.30;;
66478;SDS011;53294;47.912;13.526;2023-04-24T00:58:47;2.45;;;1.10;;
66478;SDS011;53294;47.912;13.526;2023-04-24T01:01:14;2.63;;;1.40;;
66478;SDS011;53294;47.912;13.526;2023-04-24T01:03:40;1.30;;;1.20;;
66478;SDS011;53294;47.912;13.526;2023-04-24T01:06:08;2.15;;;1.30;;
66478;SDS011;53294;47.912;13.526;2023-04-24T01:08:36;1.80;;;1.30;;
66478;SDS011;53294;47.912;13.526;2023-04-24T01:11:04;2.22;;;1.40;;
66478;SDS011;53294;47.912;13.526;2023-04-24T01:13:31;2.22;;;1.20;;
66478;SDS011;53294;47.912;13.526;2023-04-24T01:15:59;2.35;;;1.30;;
66478;SDS011;53294;47.912;13.526;2023-04-24T01:18:27;2.42;;;1.30;;
66478;SDS011;53294;47.912;13.526;2023-04-24T01:20:57;1.73;;;1.30;;
66478;SDS011;53294;47.912;13.526;2023-04-24T01:23:25;1.90;;;1.33;;
66478;SDS011;53294;47.912;13.526;2023-04-24T01:25:52;1.80;;;1.35;;
66478;SDS011;53294;47.912;13.526;2023-04-24T01:28:19;1.58;;;1.27;;
66478;SDS011;53294;47.912;13.526;2023-04-24T01:30:46;2.70;;;1.15;;
66478;SDS011;53294;47.912;13.526;2023-04-24T01:33:13;1.25;;;1.10;;
66478;SDS011;53294;47.912;13.526;2023-04-24T01:35:40;1.50;;;1.30;;
66478;SDS011;53294;47.912;13.526;2023-04-24T01:38:08;1.55;;;1.13;;
66478;SDS011;53294;47.912;13.526;2023-04-24T01:40:35;1.40;;;1.17;;
66478;SDS011;53294;47.912;13.526;2023-04-24T01:43:01;1.58;;;1.20;;
66478;SDS011;53294;47.912;13.526;2023-04-24T01:45:28;2.88;;;1.27;;
66478;SDS011;53294;47.912;13.526;2023-04-24T01:47:55;1.63;;;1.13;;
66478;SDS011;53294;47.912;13.526;2023-04-24T01:50:22;1.50;;;1.20;;
66478;SDS011;53294;47.912;13.526;2023-04-24T01:52:50;2.00;;;1.20;;
66478;SDS011;53294;47.912;13.526;2023-04-24T01:55:16;1.38;;;1.20;;
66478;SDS011;53294;47.912;13.526;2023-04-24T01:57:43;1.73;;;1.15;;
66478;SDS011;53294;47.912;13.526;2023-04-24T02:00:10;2.33;;;1.30;;
66478;SDS011;53294;47.912;13.526;2023-04-24T02:02:39;2.35;;;1.30;;
66478;SDS011;53294;47.912;13.526;2023-04-24T02:05:09;2.45;;;1.35;;
66478;SDS011;53294;47.912;13.526;2023-04-24T02:07:37;1.70;;;1.05;;
66478;SDS011;53294;47.912;13.526;2023-04-24T02:10:03;1.02;;;0.80;;
66478;SDS011;53294;47.912;13.526;2023-04-24T02:12:30;0.63;;;0.63;;
66478;SDS011;53294;47.912;13.526;2023-04-24T02:14:57;1.30;;;1.10;;
66478;SDS011;53294;47.912;13.526;2023-04-24T02:17:24;1.25;;;1.02;;
66478;SDS011;53294;47.912;13.526;2023-04-24T02:19:50;0.85;;;0.85;;
66478;SDS011;53294;47.912;13.526;2023-04-24T02:22:17;1.20;;;1.05;;
66478;SDS011;53294;47.912;13.526;2023-04-24T02:24:44;1.67;;;1.10;;
66478;SDS011;53294;47.912;13.526;2023-04-24T02:27:11;2.47;;;1.20;;
66478;SDS011;53294;47.912;13.526;2023-04-24T02:29:37;2.15;;;1.20;;
66478;SDS011;53294;47.912;13.526;2023-04-24T02:32:04;2.28;;;1.20;;
66478;SDS011;53294;47.912;13.526;2023-04-24T02:34:31;2.65;;;1.50;;
66478;SDS011;53294;47.912;13.526;2023-04-24T02:36:57;1.58;;;1.13;;
66478;SDS011;53294;47.912;13.526;2023-04-24T02:39:24;1.38;;;1.17;;
66478;SDS011;53294;47.912;13.526;2023-04-24T02:41:51;2.10;;;1.10;;
66478;SDS011;53294;47.912;13.526;2023-04-24T02:44:17;1.63;;;1.10;;
66478;SDS011;53294;47.912;13.526;2023-04-24T02:46:44;2.00;;;1.40;;
66478;SDS011;53294;47.912;13.526;2023-04-24T02:49:11;2.60;;;0.98;;
66478;SDS011;53294;47.912;13.526;2023-04-24T02:51:38;1.48;;;1.10;;
66478;SDS011;53294;47.912;13.526;2023-04-24T02:54:07;2.17;;;1.23;;
66478;SDS011;53294;47.912;13.526;2023-04-24T02:56:37;1.27;;;1.10;;
66478;SDS011;53294;47.912;13.526;2023-04-24T02:59:04;1.60;;;1.05;;
66478;SDS011;53294;47.912;13.526;2023-04-24T03:01:30;2.05;;;1.30;;
66478;SDS011;53294;47.912;13.526;2023-04-24T03:03:57;1.45;;;1.08;;
66478;SDS011;53294;47.912;13.526;2023-04-24T03:06:24;2.22;;;1.25;;
66478;SDS011;53294;47.912;13.526;2023-04-24T03:08:53;1.92;;;1.30;;
66478;SDS011;53294;47.912;13.526;2023-04-24T03:11:20;0.82;;;0.82;;
66478;SDS011;53294;47.912;13.526;2023-04-24T03:13:47;1.60;;;1.10;;
66478;SDS011;53294;47.912;13.526;2023-04-24T03:16:13;1.98;;;1.05;;
66478;SDS011;53294;47.912;13.526;2023-04-24T03:18:40;0.75;;;0.75;;
66478;SDS011;53294;47.912;13.526;2023-04-24T03:21:07;2.00;;;1.02;;
66478;SDS011;53294;47.912;13.526;2023-04-24T03:23:33;2.25;;;1.10;;
66478;SDS011;53294;47.912;13.526;2023-04-24T03:26:00;1.48;;;1.00;;
66478;SDS011;53294;47.912;13.526;2023-04-24T03:28:27;2.42;;;0.98;;
66478;SDS011;53294;47.912;13.526;2023-04-24T03:30:53;3.13;;;1.00;;
66478;SDS011;53294;47.912;13.526;2023-04-24T03:33:20;1.13;;;0.80;;
66478;SDS011;53294;47.912;13.526;2023-04-24T03:35:46;3.80;;;0.80;;
66478;SDS011;53294;47.912;13.526;2023-04-24T03:38:13;1.48;;;0.88;;
66478;SDS011;53294;47.912;13.526;2023-04-24T03:40:40;1.35;;;0.70;;
66478;SDS011;53294;47.912;13.526;2023-04-24T03:43:06;1.00;;;0.90;;
66478;SDS011;53294;47.912;13.526;2023-04-24T03:45:33;2.35;;;1.10;;
66478;SDS011;53294;47.912;13.526;2023-04-24T03:47:59;1.80;;;1.08;;
66478;SDS011;53294;47.912;13.526;2023-04-24T03:50:26;1.35;;;1.20;;
66478;SDS011;53294;47.912;13.526;2023-04-24T03:52:55;1.00;;;0.73;;
66478;SDS011;53294;47.912;13.526;2023-04-24T03:55:22;1.25;;;1.00;;
66478;SDS011;53294;47.912;13.526;2023-04-24T03:57:48;1.15;;;0.77;;
66478;SDS011;53294;47.912;13.526;2023-04-24T04:00:15;0.75;;;0.75;;
66478;SDS011;53294;47.912;13.526;2023-04-24T04:02:42;2.30;;;1.00;;
66478;SDS011;53294;47.912;13.526;2023-04-24T04:05:08;1.38;;;1.00;;
66478;SDS011;53294;47.912;13.526;2023-04-24T04:07:35;0.85;;;0.70;;
66478;SDS011;53294;47.912;13.526;2023-04-24T04:10:02;1.35;;;0.80;;
66478;SDS011;53294;47.912;13.526;2023-04-24T04:12:29;0.65;;;0.57;;
66478;SDS011;53294;47.912;13.526;2023-04-24T04:14:56;1.17;;;0.90;;
66478;SDS011;53294;47.912;13.526;2023-04-24T04:17:22;1.88;;;0.90;;
66478;SDS011;53294;47.912;13.526;2023-04-24T04:19:49;2.95;;;1.20;;
66478;SDS011;53294;47.912;13.526;2023-04-24T04:22:16;1.60;;;1.00;;
66478;SDS011;53294;47.912;13.526;2023-04-24T04:24:43;2.42;;;1.40;;
66478;SDS011;53294;47.912;13.526;2023-04-24T04:27:10;2.75;;;1.10;;
66478;SDS011;53294;47.912;13.526;2023-04-24T04:29:37;1.48;;;1.38;;
66478;SDS011;53294;47.912;13.526;2023-04-24T04:32:04;1.48;;;0.90;;
66478;SDS011;53294;47.912;13.526;2023-04-24T04:34:31;2.10;;;1.30;;
66478;SDS011;53294;47.912;13.526;2023-04-24T04:36:59;0.80;;;0.70;;
66478;SDS011;53294;47.912;13.526;2023-04-24T04:39:27;2.25;;;0.98;;
66478;SDS011;53294;47.912;13.526;2023-04-24T04:41:54;1.67;;;0.85;;
66478;SDS011;53294;47.912;13.526;2023-04-24T04:44:21;1.25;;;0.85;;
66478;SDS011;53294;47.912;13.526;2023-04-24T04:46:48;0.90;;;0.77;;
66478;SDS011;53294;47.912;13.526;2023-04-24T04:49:15;1.13;;;0.70;;
66478;SDS011;53294;47.912;13.526;2023-04-24T04:51:43;2.58;;;0.80;;
66478;SDS011;53294;47.912;13.526;2023-04-24T04:54:09;0.80;;;0.80;;
66478;SDS011;53294;47.912;13.526;2023-04-24T04:56:36;1.33;;;0.80;;
66478;SDS011;53294;47.912;13.526;2023-04-24T04:59:03;2.03;;;0.93;;
66478;SDS011;53294;47.912;13.526;2023-04-24T05:01:29;1.00;;;0.80;;
66478;SDS011;53294;47.912;13.526;2023-04-24T05:03:56;1.88;;;0.80;;
66478;SDS011;53294;47.912;13.526;2023-04-24T05:06:23;1.20;;;0.90;;
66478;SDS011;53294;47.912;13.526;2023-04-24T05:08:50;1.42;;;0.77;;
66478;SDS011;53294;47.912;13.526;2023-04-24T05:11:17;0.82;;;0.73;;
66478;SDS011;53294;47.912;13.526;2023-04-24T05:13:44;0.93;;;0.70;;
66478;SDS011;53294;47.912;13.526;2023-04-24T05:16:10;1.73;;;0.85;;
66478;SDS011;53294;47.912;13.526;2023-04-24T05:18:37;1.30;;;1.00;;
66478;SDS011;53294;47.912;13.526;2023-04-24T05:21:03;0.80;;;0.70;;
66478;SDS011;53294;47.912;13.526;2023-04-24T05:23:30;2.78;;;0.85;;
66478;SDS011;53294;47.912;13.526;2023-04-24T05:25:57;1.42;;;0.90;;
66478;SDS011;53294;47.912;13.526;2023-04-24T05:28:24;1.90;;;1.20;;
66478;SDS011;53294;47.912;13.526;2023-04-24T05:30:54;1.83;;;1.10;;
66478;SDS011;53294;47.912;13.526;2023-04-24T05:33:22;0.73;;;0.73;;
66478;SDS011;53294;47.912;13.526;2023-04-24T05:35:49;1.13;;;0.70;;
66478;SDS011;53294;47.912;13.526;2023-04-24T05:38:16;0.82;;;0.68;;
66478;SDS011;53294;47.912;13.526;2023-04-24T05:40:46;1.02;;;0.80;;
66478;SDS011;53294;47.912;13.526;2023-04-24T05:43:12;1.65;;;1.10;;
66478;SDS011;53294;47.912;13.526;2023-04-24T05:45:39;1.17;;;0.85;;
66478;SDS011;53294;47.912;13.526;2023-04-24T05:48:06;2.08;;;1.00;;
66478;SDS011;53294;47.912;13.526;2023-04-24T05:50:33;1.83;;;0.73;;
66478;SDS011;53294;47.912;13.526;2023-04-24T05:53:02;0.73;;;0.68;;
66478;SDS011;53294;47.912;13.526;2023-04-24T05:55:30;0.70;;;0.70;;
66478;SDS011;53294;47.912;13.526;2023-04-24T05:57:57;1.13;;;0.90;;
66478;SDS011;53294;47.912;13.526;2023-04-24T06:00:24;1.08;;;0.98;;
66478;SDS011;53294;47.912;13.526;2023-04-24T06:02:51;0.63;;;0.60;;
66478;SDS011;53294;47.912;13.526;2023-04-24T06:05:19;1.40;;;1.00;;
66478;SDS011;53294;47.912;13.526;2023-04-24T06:07:46;0.63;;;0.60;;
66478;SDS011;53294;47.912;13.526;2023-04-24T06:10:14;0.80;;;0.70;;
66478;SDS011;53294;47.912;13.526;2023-04-24T06:12:41;0.65;;;0.50;;
66478;SDS011;53294;47.912;13.526;2023-04-24T06:15:07;0.95;;;0.73;;
66478;SDS011;53294;47.912;13.526;2023-04-24T06:17:34;0.50;;;0.50;;
66478;SDS011;53294;47.912;13.526;2023-04-24T06:20:01;0.55;;;0.55;;
66478;SDS011;53294;47.912;13.526;2023-04-24T06:22:31;1.45;;;0.90;;
66478;SDS011;53294;47.912;13.526;2023-04-24T06:24:59;0.63;;;0.63;;
66478;SDS011;53294;47.912;13.526;2023-04-24T06:27:26;0.68;;;0.68;;
66478;SDS011;53294;47.912;13.526;2023-04-24T06:29:53;2.13;;;0.80;;
66478;SDS011;53294;47.912;13.526;2023-04-24T06:32:22;1.27;;;0.60;;
66478;SDS011;53294;47.912;13.526;2023-04-24T06:34:52;1.48;;;1.00;;
66478;SDS011;53294;47.912;13.526;2023-04-24T06:37:19;1.15;;;0.80;;
66478;SDS011;53294;47.912;13.526;2023-04-24T06:39:46;1.27;;;0.80;;
66478;SDS011;53294;47.912;13.526;2023-04-24T06:42:13;2.65;;;0.80;;
66478;SDS011;53294;47.912;13.526;2023-04-24T06:44:40;1.00;;;0.68;;
66478;SDS011;53294;47.912;13.526;2023-04-24T06:47:07;1.85;;;0.60;;
66478;SDS011;53294;47.912;13.526;2023-04-24T06:49:36;1.25;;;0.80;;
66478;SDS011;53294;47.912;13.526;2023-04-24T06:52:03;2.17;;;0.80;;
66478;SDS011;53294;47.912;13.526;2023-04-24T06:54:31;1.80;;;0.90;;
66478;SDS011;53294;47.912;13.526;2023-04-24T06:56:58;1.88;;;0.80;;
66478;SDS011;53294;47.912;13.526;2023-04-24T06:59:27;0.93;;;0.70;;
66478;SDS011;53294;47.912;13.526;2023-04-24T07:01:54;0.43;;;0.43;;
66478;SDS011;53294;47.912;13.526;2023-04-24T07:04:21;1.30;;;0.68;;
66478;SDS011;53294;47.912;13.526;2023-04-24T07:06:48;0.93;;;0.55;;
66478;SDS011;53294;47.912;13.526;2023-04-24T07:09:15;0.40;;;0.40;;
66478;SDS011;53294;47.912;13.526;2023-04-24T07:11:45;1.40;;;0.70;;
66478;SDS011;53294;47.912;13.526;2023-04-24T07:14:12;1.33;;;0.70;;
66478;SDS011;53294;47.912;13.526;2023-04-24T07:16:38;0.80;;;0.70;;
66478;SDS011;53294;47.912;13.526;2023-04-24T07:19:06;0.90;;;0.70;;
66478;SDS011;53294;47.912;13.526;2023-04-24T07:21:33;2.80;;;0.75;;
66478;SDS011;53294;47.912;13.526;2023-04-24T07:23:59;0.93;;;0.57;;
66478;SDS011;53294;47.912;13.526;2023-04-24T07:26:28;1.10;;;0.70;;
66478;SDS011;53294;47.912;13.526;2023-04-24T07:28:56;1.65;;;0.50;;
66478;SDS011;53294;47.912;13.526;2023-04-24T07:31:22;1.17;;;0.73;;
66478;SDS011;53294;47.912;13.526;2023-04-24T07:33:49;1.10;;;0.70;;
66478;SDS011;53294;47.912;13.526;2023-04-24T07:36:16;0.60;;;0.60;;
66478;SDS011;53294;47.912;13.526;2023-04-24T07:38:45;0.93;;;0.57;;
66478;SDS011;53294;47.912;13.526;2023-04-24T07:41:12;1.77;;;0.60;;
66478;SDS011;53294;47.912;13.526;2023-04-24T07:43:41;0.90;;;0.70;;
66478;SDS011;53294;47.912;13.526;2023-04-24T07:46:08;0.68;;;0.50;;
66478;SDS011;53294;47.912;13.526;2023-04-24T07:48:35;0.63;;;0.63;;
66478;SDS011;53294;47.912;13.526;2023-04-24T07:51:02;1.27;;;0.57;;
66478;SDS011;53294;47.912;13.526;2023-04-24T07:53:30;0.68;;;0.57;;
66478;SDS011;53294;47.912;13.526;2023-04-24T07:55:57;1.02;;;0.77;;
66478;SDS011;53294;47.912;13.526;2023-04-24T07:58:23;1.25;;;0.60;;
66478;SDS011;53294;47.912;13.526;2023-04-24T08:00:50;1.40;;;0.70;;
66478;SDS011;53294;47.912;13.526;2023-04-24T08:03:17;0.70;;;0.50;;
66478;SDS011;53294;47.912;13.526;2023-04-24T08:05:46;0.80;;;0.70;;
66478;SDS011;53294;47.912;13.526;2023-04-24T08:08:13;0.60;;;0.60;;
66478;SDS011;53294;47.912;13.526;2023-04-24T08:10:40;1.90;;;0.70;;
66478;SDS011;53294;47.912;13.526;2023-04-24T08:13:06;1.63;;;1.10;;
66478;SDS011;53294;47.912;13.526;2023-04-24T08:15:33;1.38;;;0.75;;
66478;SDS011;53294;47.912;13.526;2023-04-24T08:18:00;0.70;;;0.70;;
66478;SDS011;53294;47.912;13.526;2023-04-24T08:20:27;0.93;;;0.68;;
66478;SDS011;53294;47.912;13.526;2023-04-24T08:22:54;0.80;;;0.77;;
66478;SDS011;53294;47.912;13.526;2023-04-24T08:25:21;1.50;;;0.60;;
66478;SDS011;53294;47.912;13.526;2023-04-24T08:27:49;1.48;;;0.80;;
66478;SDS011;53294;47.912;13.526;2023-04-24T08:30:15;1.75;;;0.77;;
66478;SDS011;53294;47.912;13.526;2023-04-24T08:32:42;1.23;;;0.75;;
66478;SDS011;53294;47.912;13.526;2023-04-24T08:35:09;0.95;;;0.80;;
66478;SDS011;53294;47.912;13.526;2023-04-24T08:37:36;1.50;;;0.88;;
66478;SDS011;53294;47.912;13.526;2023-04-24T08:40:05;0.88;;;0.60;;
66478;SDS011;53294;47.912;13.526;2023-04-24T08:42:37;1.10;;;0.82;;
66478;SDS011;53294;47.912;13.526;2023-04-24T08:45:06;1.88;;;1.10;;
66478;SDS011;53294;47.912;13.526;2023-04-24T08:47:33;1.13;;;0.70;;
66478;SDS011;53294;47.912;13.526;2023-04-24T08:50:04;0.98;;;0.88;;
66478;SDS011;53294;47.912;13.526;2023-04-24T08:52:32;0.98;;;0.77;;
66478;SDS011;53294;47.912;13.526;2023-04-24T08:55:00;0.90;;;0.50;;
66478;SDS011;53294;47.912;13.526;2023-04-24T08:57:27;0.77;;;0.43;;
66478;SDS011;53294;47.912;13.526;2023-04-24T08:59:55;0.70;;;0.70;;
66478;SDS011;53294;47.912;13.526;2023-04-24T09:02:26;2.08;;;0.70;;
66478;SDS011;53294;47.912;13.526;2023-04-24T09:04:53;1.15;;;0.63;;
66478;SDS011;53294;47.912;13.526;2023-04-24T09:07:22;2.35;;;0.75;;
66478;SDS011;53294;47.912;13.526;2023-04-24T09:09:52;0.60;;;0.60;;
66478;SDS011;53294;47.912;13.526;2023-04-24T09:12:19;1.00;;;0.50;;
66478;SDS011;53294;47.912;13.526;2023-04-24T09:14:46;0.60;;;0.60;;
66478;SDS011;53294;47.912;13.526;2023-04-24T09:17:14;0.85;;;0.35;;
66478;SDS011;53294;47.912;13.526;2023-04-24T09:19:41;1.27;;;0.80;;
66478;SDS011;53294;47.912;13.526;2023-04-24T09:22:08;0.65;;;0.60;;
66478;SDS011;53294;47.912;13.526;2023-04-24T09:24:35;0.32;;;0.32;;
66478;SDS011;53294;47.912;13.526;2023-04-24T09:27:02;1.13;;;0.70;;
66478;SDS011;53294;47.912;13.526;2023-04-24T09:29:30;0.30;;;0.30;;
66478;SDS011;53294;47.912;13.526;2023-04-24T09:31:58;4.32;;;0.60;;
66478;SDS011;53294;47.912;13.526;2023-04-24T09:34:26;0.93;;;0.40;;
66478;SDS011;53294;47.912;13.526;2023-04-24T09:36:53;0.40;;;0.40;;
66478;SDS011;53294;47.912;13.526;2023-04-24T09:39:20;1.98;;;0.65;;
66478;SDS011;53294;47.912;13.526;2023-04-24T09:41:51;1.25;;;0.60;;
66478;SDS011;53294;47.912;13.526;2023-04-24T09:44:20;1.70;;;0.60;;
66478;SDS011;53294;47.912;13.526;2023-04-24T09:49:28;0.98;;;0.50;;
66478;SDS011;53294;47.912;13.526;2023-04-24T09:52:03;1.70;;;0.50;;
66478;SDS011;53294;47.912;13.526;2023-04-24T09:54:39;0.82;;;0.60;;
66478;SDS011;53294;47.912;13.526;2023-04-24T09:57:07;2.20;;;0.70;;
66478;SDS011;53294;47.912;13.526;2023-04-24T09:59:34;1.30;;;0.70;;
66478;SDS011;53294;47.912;13.526;2023-04-24T10:02:02;1.35;;;0.82;;
66478;SDS011;53294;47.912;13.526;2023-04-24T10:04:33;1.17;;;0.43;;
66478;SDS011;53294;47.912;13.526;2023-04-24T10:07:00;1.45;;;0.70;;
66478;SDS011;53294;47.912;13.526;2023-04-24T10:09:32;0.77;;;0.73;;
66478;SDS011;53294;47.912;13.526;2023-04-24T10:11:59;2.35;;;0.88;;
66478;SDS011;53294;47.912;13.526;2023-04-24T10:14:28;1.20;;;0.75;;
66478;SDS011;53294;47.912;13.526;2023-04-24T10:16:56;1.02;;;0.57;;
66478;SDS011;53294;47.912;13.526;2023-04-24T10:19:25;1.38;;;0.70;;
66478;SDS011;53294;47.912;13.526;2023-04-24T10:21:52;2.08;;;0.70;;
66478;SDS011;53294;47.912;13.526;2023-04-24T10:24:22;0.95;;;0.50;;
66478;SDS011;53294;47.912;13.526;2023-04-24T10:26:48;1.00;;;0.60;;
66478;SDS011;53294;47.912;13.526;2023-04-24T10:29:16;0.73;;;0.47;;
66478;SDS011;53294;47.912;13.526;2023-04-24T10:31:44;0.65;;;0.60;;
66478;SDS011;53294;47.912;13.526;2023-04-24T10:34:15;1.23;;;0.60;;
66478;SDS011;53294;47.912;13.526;2023-04-24T10:36:45;2.22;;;1.10;;
66478;SDS011;53294;47.912;13.526;2023-04-24T10:39:14;1.75;;;0.60;;
66478;SDS011;53294;47.912;13.526;2023-04-24T10:41:42;1.85;;;0.82;;
66478;SDS011;53294;47.912;13.526;2023-04-24T10:44:10;0.88;;;0.63;;
66478;SDS011;53294;47.912;13.526;2023-04-24T10:46:43;1.50;;;0.85;;
66478;SDS011;53294;47.912;13.526;2023-04-24T10:49:11;0.75;;;0.50;;
66478;SDS011;53294;47.912;13.526;2023-04-24T10:51:48;0.40;;;0.40;;
66478;SDS011;53294;47.912;13.526;2023-04-24T10:54:27;0.55;;;0.55;;
66478;SDS011;53294;47.912;13.526;2023-04-24T11:00:37;1.38;;;0.93;;
66478;SDS011;53294;47.912;13.526;2023-04-24T11:02:47;3.05;;;1.02;;
66478;SDS011;53294;47.912;13.526;2023-04-24T11:05:17;1.20;;;0.90;;
66478;SDS011;53294;47.912;13.526;2023-04-24T11:10:44;1.67;;;0.80;;
66478;SDS011;53294;47.912;13.526;2023-04-24T11:13:15;0.90;;;0.60;;
66478;SDS011;53294;47.912;13.526;2023-04-24T11:15:42;0.55;;;0.52;;
66478;SDS011;53294;47.912;13.526;2023-04-24T11:18:13;1.65;;;0.68;;
66478;SDS011;53294;47.912;13.526;2023-04-24T11:20:42;1.25;;;0.80;;
66478;SDS011;53294;47.912;13.526;2023-04-24T11:23:11;0.90;;;0.75;;
66478;SDS011;53294;47.912;13.526;2023-04-24T11:25:38;1.33;;;1.02;;
66478;SDS011;53294;47.912;13.526;2023-04-24T11:28:05;2.35;;;0.77;;
66478;SDS011;53294;47.912;13.526;2023-04-24T11:30:32;1.17;;;0.90;;
66478;SDS011;53294;47.912;13.526;2023-04-24T11:33:03;0.93;;;0.90;;
66478;SDS011;53294;47.912;13.526;2023-04-24T11:35:34;1.02;;;0.88;;
66478;SDS011;53294;47.912;13.526;2023-04-24T11:38:05;0.70;;;0.65;;
66478;SDS011;53294;47.912;13.526;2023-04-24T11:40:49;0.75;;;0.75;;
66478;SDS011;53294;47.912;13.526;2023-04-24T11:43:16;1.20;;;0.70;;
66478;SDS011;53294;47.912;13.526;2023-04-24T11:45:48;2.08;;;0.80;;
66478;SDS011;53294;47.912;13.526;2023-04-24T11:48:19;1.85;;;0.80;;
66478;SDS011;53294;47.912;13.526;2023-04-24T11:50:49;2.42;;;0.93;;
66478;SDS011;53294;47.912;13.526;2023-04-24T11:53:18;1.40;;;0.80;;
66478;SDS011;53294;47.912;13.526;2023-04-24T11:55:46;0.98;;;0.85;;
66478;SDS011;53294;47.912;13.526;2023-04-24T11:58:13;1.27;;;0.95;;
66478;SDS011;53294;47.912;13.526;2023-04-24T12:00:40;1.58;;;1.00;;
66478;SDS011;53294;47.912;13.526;2023-04-24T12:03:10;1.40;;;1.00;;
66478;SDS011;53294;47.912;13.526;2023-04-24T12:05:38;1.70;;;1.05;;
66478;SDS011;53294;47.912;13.526;2023-04-24T12:08:06;1.00;;;0.90;;
66478;SDS011;53294;47.912;13.526;2023-04-24T12:10:33;2.17;;;0.90;;
66478;SDS011;53294;47.912;13.526;2023-04-24T12:13:01;2.13;;;1.00;;
66478;SDS011;53294;47.912;13.526;2023-04-24T12:15:28;2.03;;;1.33;;
66478;SDS011;53294;47.912;13.526;2023-04-24T12:17:55;2.42;;;1.25;;
66478;SDS011;53294;47.912;13.526;2023-04-24T12:20:29;1.85;;;1.35;;
66478;SDS011;53294;47.912;13.526;2023-04-24T12:22:58;2.30;;;1.20;;
66478;SDS011;53294;47.912;13.526;2023-04-24T12:25:27;2.88;;;1.40;;
66478;SDS011;53294;47.912;13.526;2023-04-24T12:30:30;2.67;;;1.10;;
66478;SDS011;53294;47.912;13.526;2023-04-24T12:32:58;2.78;;;1.35;;
66478;SDS011;53294;47.912;13.526;2023-04-24T12:35:27;2.58;;;1.30;;
66478;SDS011;53294;47.912;13.526;2023-04-24T12:37:55;2.67;;;1.40;;
66478;SDS011;53294;47.912;13.526;2023-04-24T12:40:21;2.65;;;1.40;;
66478;SDS011;53294;47.912;13.526;2023-04-24T12:42:51;2.00;;;1.50;;
66478;SDS011;53294;47.912;13.526;2023-04-24T12:45:18;2.75;;;1.48;;
66478;SDS011;53294;47.912;13.526;2023-04-24T12:47:45;2.65;;;1.33;;
66478;SDS011;53294;47.912;13.526;2023-04-24T12:50:13;1.63;;;1.25;;
66478;SDS011;53294;47.912;13.526;2023-04-24T12:52:41;2.33;;;1.38;;
66478;SDS011;53294;47.912;13.526;2023-04-24T12:55:08;1.98;;;1.60;;
66478;SDS011;53294;47.912;13.526;2023-04-24T12:57:36;2.15;;;1.23;;
66478;SDS011;53294;47.912;13.526;2023-04-24T13:00:05;2.40;;;1.50;;
66478;SDS011;53294;47.912;13.526;2023-04-24T13:02:34;1.60;;;1.40;;
66478;SDS011;53294;47.912;13.526;2023-04-24T13:05:01;2.78;;;1.30;;
66478;SDS011;53294;47.912;13.526;2023-04-24T13:07:28;2.17;;;1.40;;
66478;SDS011;53294;47.912;13.526;2023-04-24T13:09:55;3.83;;;1.80;;
66478;SDS011;53294;47.912;13.526;2023-04-24T13:12:23;2.63;;;1.73;;
66478;SDS011;53294;47.912;13.526;2023-04-24T13:14:52;1.95;;;1.40;;
66478;SDS011;53294;47.912;13.526;2023-04-24T13:17:19;1.67;;;1.20;;
66478;SDS011;53294;47.912;13.526;2023-04-24T13:19:46;2.75;;;1.25;;
66478;SDS011;53294;47.912;13.526;2023-04-24T13:22:12;2.10;;;1.30;;
66478;SDS011;53294;47.912;13.526;2023-04-24T13:24:39;2.70;;;1.50;;
66478;SDS011;53294;47.912;13.526;2023-04-24T13:27:08;2.20;;;1.40;;
66478;SDS011;53294;47.912;13.526;2023-04-24T13:29:36;2.20;;;1.50;;
66478;SDS011;53294;47.912;13.526;2023-04-24T13:32:03;3.70;;;1.55;;
66478;SDS011;53294;47.912;13.526;2023-04-24T13:34:30;2.78;;;1.40;;
66478;SDS011;53294;47.912;13.526;2023-04-24T13:36:57;1.95;;;1.30;;
66478;SDS011;53294;47.912;13.526;2023-04-24T13:39:24;1.88;;;0.98;;
66478;SDS011;53294;47.912;13.526;2023-04-24T13:41:52;2.92;;;1.23;;
66478;SDS011;53294;47.912;13.526;2023-04-24T13:44:20;2.15;;;1.30;;
66478;SDS011;53294;47.912;13.526;2023-04-24T13:46:49;1.55;;;0.95;;
66478;SDS011;53294;47.912;13.526;2023-04-24T13:49:20;1.92;;;1.25;;
66478;SDS011;53294;47.912;13.526;2023-04-24T13:51:48;1.95;;;1.13;;
66478;SDS011;53294;47.912;13.526;2023-04-24T13:54:15;1.55;;;1.10;;
66478;SDS011;53294;47.912;13.526;2023-04-24T13:56:42;1.35;;;1.25;;
66478;SDS011;53294;47.912;13.526;2023-04-24T13:59:09;1.67;;;1.33;;
66478;SDS011;53294;47.912;13.526;2023-04-24T14:01:36;1.88;;;1.40;;
66478;SDS011;53294;47.912;13.526;2023-04-24T14:04:02;1.65;;;1.15;;
66478;SDS011;53294;47.912;13.526;2023-04-24T14:06:30;2.78;;;1.60;;
66478;SDS011;53294;47.912;13.526;2023-04-24T14:08:57;2.63;;;1.40;;
66478;SDS011;53294;47.912;13.526;2023-04-24T14:11:24;2.00;;;1.30;;
66478;SDS011;53294;47.912;13.526;2023-04-24T14:13:52;2.50;;;1.40;;
66478;SDS011;53294;47.912;13.526;2023-04-24T14:16:20;2.55;;;1.33;;
66478;SDS011;53294;47.912;13.526;2023-04-24T14:18:47;2.88;;;1.50;;
66478;SDS011;53294;47.912;13.526;2023-04-24T14:21:14;3.58;;;1.42;;
66478;SDS011;53294;47.912;13.526;2023-04-24T14:23:40;2.55;;;1.40;;
66478;SDS011;53294;47.912;13.526;2023-04-24T14:26:07;2.60;;;1.40;;
66478;SDS011;53294;47.912;13.526;2023-04-24T14:28:34;3.03;;;1.45;;
66478;SDS011;53294;47.912;13.526;2023-04-24T14:31:01;1.75;;;1.23;;
66478;SDS011;53294;47.912;13.526;2023-04-24T14:33:28;3.63;;;1.58;;
66478;SDS011;53294;47.912;13.526;2023-04-24T14:35:54;2.95;;;1.50;;
66478;SDS011;53294;47.912;13.526;2023-04-24T14:38:21;2.78;;;1.05;;
66478;SDS011;53294;47.912;13.526;2023-04-24T14:40:48;1.80;;;1.20;;
66478;SDS011;53294;47.912;13.526;2023-04-24T14:43:32;2.85;;;1.30;;
66478;SDS011;53294;47.912;13.526;2023-04-24T14:46:02;1.80;;;1.20;;
66478;SDS011;53294;47.912;13.526;2023-04-24T14:48:29;2.15;;;1.30;;